CST,Max TemperatureF,Mean TemperatureF,Min TemperatureF,Max Dew PointF,MeanDew PointF,Min DewpointF,Max Humidity, Mean Humidity, Min Humidity, Max Sea Level PressureIn, Mean Sea Level PressureIn, Min Sea Level PressureIn, Max VisibilityMiles, Mean VisibilityMiles, Min VisibilityMiles, Max Wind SpeedMPH, Mean Wind SpeedMPH, Max Gust SpeedMPH,PrecipitationIn, CloudCover, Events, WindDirDegrees
2012-12-1,58,43,28,34,30,25,85,63,40,29.85,29.76,29.66,10,10,10,13,3,14,0.00,0,,53
2012-12-2,67,46,25,35,29,24,92,58,24,29.86,29.66,29.38,10,10,10,26,8,38,0.00,0,,160
2012-12-3,59,47,35,40,25,16,66,45,24,30.05,29.76,29.36,10,10,10,39,17,53,T,1,Rain,280
2012-12-4,47,38,28,22,20,16,75,56,37,30.27,30.18,30.06,10,10,10,17,8,22,0.00,0,,120
2012-12-5,52,39,26,31,25,21,81,60,38,30.12,29.84,29.66,10,10,10,17,9,21,0.00,0,,109
2012-12-6,47,38,29,29,21,18,69,53,37,30.05,29.98,29.81,10,10,10,28,11,32,0.00,6,,314
2012-12-7,34,27,19,30,28,19,100,83,66,30.02,29.95,29.90,10,4,0,15,7,17,0.21,8,Fog-Snow,113
2012-12-8,34,29,24,30,27,23,100,92,84,29.98,29.77,29.61,10,9,3,28,15,32,0.00,7,Rain-Snow,121
2012-12-9,29,14,-1,27,6,-5,92,83,73,30.40,30.19,29.81,10,4,0,36,21,43,0.01,6,Fog-Rain-Snow,328
2012-12-10,30,10,-11,22,1,-15,90,77,63,30.24,29.98,29.84,10,8,0,26,7,35,0.00,4,Fog,187
2012-12-11,29,24,19,25,20,17,88,79,69,29.89,29.83,29.72,10,10,10,14,8,15,0.00,3,,196
2012-12-12,31,23,15,24,19,11,88,81,74,29.83,29.74,29.68,10,10,10,16,4,20,0.00,0,,85
2012-12-13,24,19,13,19,16,11,100,91,81,30.15,30.02,29.85,10,8,0,13,7,16,0.00,3,Fog,86
2012-12-14,31,25,19,24,20,17,91,85,78,29.97,29.79,29.65,10,10,7,15,7,18,0.00,0,,87
2012-12-15,31,24,17,22,19,15,92,80,68,29.84,29.73,29.58,10,9,7,22,13,24,0.00,2,,322
2012-12-16,25,20,15,23,19,13,100,89,77,29.85,29.80,29.71,10,5,0,15,7,20,0.00,7,Fog,82
2012-12-17,25,24,22,23,22,19,100,94,88,29.81,29.62,29.46,10,2,0,18,8,21,T,8,Fog-Snow,114
2012-12-18,35,29,22,26,22,14,92,74,56,29.86,29.61,29.46,10,6,1,20,8,23,0.04,5,Snow,247
2012-12-19,26,17,7,17,13,5,84,73,62,30.18,30.02,29.86,10,10,10,21,9,26,0.00,2,,309
2012-12-20,22,13,3,11,7,1,92,82,60,30.27,30.21,30.13,10,10,10,16,7,,T,2,,299
2012-12-21,26,14,2,18,8,1,96,82,68,30.26,30.16,30.04,10,7,0,13,5,15,0.00,1,Fog,98
2012-12-22,21,12,2,14,8,-1,100,86,71,30.21,30.05,29.93,10,7,0,20,9,22,0.00,2,Fog,334
2012-12-23,11,6,1,5,2,-2,91,82,73,30.18,30.08,29.98,10,7,1,18,9,21,0.00,7,Snow,14
2012-12-24,6,1,-5,0,-4,-10,95,82,69,30.52,30.31,30.18,10,10,10,16,8,20,0.00,1,,10
2012-12-25,9,1,-7,5,-2,-11,95,82,69,30.64,30.51,30.30,10,9,2,12,6,13,T,5,Snow,208
2012-12-26,14,9,3,11,5,-1,87,79,73,30.35,30.18,30.03,10,9,2,17,12,,T,4,Snow,119
2012-12-27,17,13,8,12,10,5,92,83,73,30.14,30.02,29.95,10,4,0,20,10,23,0.01,8,Fog-Snow,106
2012-12-28,10,4,-2,7,4,-5,95,87,79,30.19,30.09,30.01,10,5,1,10,4,12,0.00,6,Snow,271
2012-12-29,27,16,4,17,8,1,92,78,63,30.18,30.14,30.04,10,10,10,18,8,21,0.00,1,,250
2012-12-30,25,13,1,20,11,1,100,84,68,30.20,30.02,29.89,10,7,0,22,9,24,0.00,3,Fog,303
2012-12-31,26,23,19,20,18,15,91,83,75,30.24,30.19,30.09,10,10,10,12,5,14,0.00,8,,225